createdAt,value
2023-03-15T00:00:13.608Z,15.70
2023-03-15T00:02:41.801Z,15.77
2023-03-15T00:05:13.159Z,18.10
2023-03-15T00:07:41.344Z,17.73
2023-03-15T00:10:10.174Z,20.03
2023-03-15T00:12:37.771Z,15.27
2023-03-15T00:15:08.332Z,18.30
2023-03-15T00:17:36.498Z,14.70
2023-03-15T00:20:06.554Z,17.07
2023-03-15T00:22:34.886Z,17.80
2023-03-15T00:25:03.231Z,14.83
2023-03-15T00:27:31.181Z,16.90
2023-03-15T00:29:59.282Z,16.80
2023-03-15T00:32:28.172Z,11.23
2023-03-15T00:34:56.654Z,15.47
2023-03-15T00:37:25.805Z,15.17
2023-03-15T00:39:55.737Z,15.33
2023-03-15T00:42:27.515Z,16.57
2023-03-15T00:45:15.217Z,17.17
2023-03-15T00:47:43.291Z,17.27
2023-03-15T00:50:11.494Z,16.87
2023-03-15T00:52:39.848Z,18.50
2023-03-15T00:55:09.891Z,22.40
2023-03-15T00:57:38.024Z,18.43
2023-03-15T01:00:10.409Z,21.70
2023-03-15T01:02:38.564Z,28.30
2023-03-15T01:05:09.596Z,24.37
2023-03-15T01:07:37.742Z,23.07
2023-03-15T01:10:09.080Z,22.63
2023-03-15T01:12:36.990Z,25.07
2023-03-15T01:15:05.959Z,23.37
2023-03-15T01:17:34.102Z,19.43
2023-03-15T01:20:02.469Z,20.87
2023-03-15T01:22:30.574Z,21.47
2023-03-15T01:24:58.270Z,22.83
2023-03-15T01:27:26.587Z,20.13
2023-03-15T01:29:54.480Z,20.53
2023-03-15T01:32:22.617Z,18.07
2023-03-15T01:34:50.400Z,18.67
2023-03-15T01:37:18.638Z,16.60
2023-03-15T01:39:46.696Z,18.07
2023-03-15T01:42:14.852Z,16.07
2023-03-15T01:44:51.540Z,15.20
2023-03-15T01:47:18.812Z,14.48
2023-03-15T01:49:46.981Z,13.00
2023-03-15T01:52:20.603Z,15.87
2023-03-15T01:54:52.408Z,15.03
2023-03-15T01:57:22.774Z,13.83
2023-03-15T02:00:32.767Z,13.07
2023-03-15T02:03:03.684Z,12.97
2023-03-15T02:05:33.460Z,15.80
2023-03-15T02:08:04.927Z,17.70
2023-03-15T02:10:43.044Z,13.40
2023-03-15T02:13:10.583Z,14.47
2023-03-15T02:15:38.559Z,14.83
2023-03-15T02:18:06.712Z,14.03
2023-03-15T02:20:39.738Z,14.00
2023-03-15T02:23:11.954Z,15.50
2023-03-15T02:26:00.410Z,17.93
2023-03-15T02:28:28.240Z,11.70
2023-03-15T02:30:56.587Z,15.13
2023-03-15T02:33:29.235Z,13.70
2023-03-15T02:35:57.370Z,12.53
2023-03-15T02:38:25.731Z,11.00
2023-03-15T02:40:53.124Z,10.97
2023-03-15T02:43:22.927Z,15.07
2023-03-15T02:45:50.755Z,11.10
2023-03-15T02:48:17.943Z,11.17
2023-03-15T02:50:45.555Z,9.37
2023-03-15T02:53:13.786Z,9.77
2023-03-15T02:55:40.880Z,9.87
2023-03-15T02:58:08.753Z,10.10
2023-03-15T03:00:36.832Z,12.20
2023-03-15T03:03:05.027Z,10.67
2023-03-15T03:05:33.123Z,10.83
2023-03-15T03:08:02.785Z,12.03
2023-03-15T03:10:30.368Z,11.03
2023-03-15T03:12:58.438Z,12.57
2023-03-15T03:15:26.564Z,12.67
2023-03-15T03:17:54.561Z,13.57
2023-03-15T03:20:22.631Z,14.80
2023-03-15T03:22:50.688Z,13.57
2023-03-15T03:25:18.769Z,14.87
2023-03-15T03:27:47.317Z,16.40
2023-03-15T03:30:15.993Z,15.53
2023-03-15T03:32:43.988Z,13.97
2023-03-15T03:35:14.753Z,35.73
2023-03-15T03:37:43.562Z,15.53
2023-03-15T03:40:13.074Z,24.87
2023-03-15T03:42:41.108Z,25.20
2023-03-15T03:45:11.999Z,17.23
2023-03-15T03:47:40.289Z,17.50
2023-03-15T03:50:13.030Z,19.07
2023-03-15T03:52:44.337Z,19.00
2023-03-15T03:55:14.996Z,16.67
2023-03-15T03:57:43.384Z,13.10
2023-03-15T04:00:16.453Z,14.00
2023-03-15T04:02:44.104Z,13.20
2023-03-15T04:05:12.374Z,14.37
2023-03-15T04:07:40.622Z,8.80
2023-03-15T04:10:14.771Z,11.47
2023-03-15T04:12:43.599Z,11.23
2023-03-15T04:15:12.557Z,7.67
2023-03-15T04:17:40.781Z,9.27
2023-03-15T04:20:12.175Z,8.40
2023-03-15T04:22:40.794Z,11.30
2023-03-15T04:25:09.888Z,12.67
2023-03-15T04:27:38.228Z,12.37
2023-03-15T04:30:08.959Z,13.60
2023-03-15T04:32:36.631Z,15.23
2023-03-15T04:35:07.660Z,14.87
2023-03-15T04:37:35.376Z,14.90
2023-03-15T04:40:04.924Z,13.97
2023-03-15T04:42:32.550Z,15.53
2023-03-15T04:45:00.773Z,15.30
2023-03-15T04:47:29.052Z,15.47
2023-03-15T04:49:57.014Z,17.07
2023-03-15T04:52:24.934Z,20.60
2023-03-15T04:54:52.849Z,32.50
2023-03-15T04:57:20.537Z,18.93
2023-03-15T04:59:48.965Z,22.53
2023-03-15T05:02:17.164Z,27.43
2023-03-15T05:04:45.388Z,34.23
2023-03-15T05:07:13.471Z,20.13
2023-03-15T05:09:41.836Z,27.90
2023-03-15T05:12:10.468Z,22.30
2023-03-15T05:14:39.299Z,20.37
2023-03-15T05:17:07.207Z,28.23
2023-03-15T05:19:35.768Z,44.57
2023-03-15T05:22:03.820Z,24.10
2023-03-15T05:24:32.007Z,28.70
2023-03-15T05:26:59.610Z,50.10
2023-03-15T05:29:27.700Z,37.33
2023-03-15T05:31:55.981Z,26.37
2023-03-15T05:34:24.465Z,17.47
2023-03-15T05:36:52.342Z,41.43
2023-03-15T05:39:20.132Z,36.17
2023-03-15T05:41:48.446Z,49.83
2023-03-15T05:44:16.577Z,37.27
2023-03-15T05:46:43.729Z,53.70
2023-03-15T05:49:11.954Z,29.67
2023-03-15T05:51:39.814Z,37.07
2023-03-15T05:54:07.813Z,52.27
2023-03-15T05:56:36.884Z,22.73
2023-03-15T05:59:05.190Z,23.50
2023-03-15T06:01:33.231Z,46.63
2023-03-15T06:04:01.700Z,37.13
2023-03-15T06:06:29.292Z,34.50
2023-03-15T06:08:57.256Z,34.20
2023-03-15T06:11:25.587Z,22.20
2023-03-15T06:13:53.702Z,18.93
2023-03-15T06:19:04.383Z,18.53
2023-03-15T06:21:33.020Z,16.17
2023-03-15T06:24:01.419Z,20.87
2023-03-15T06:26:29.339Z,20.37
2023-03-15T06:28:57.820Z,17.83
2023-03-15T06:39:45.526Z,13.57
2023-03-15T06:42:13.870Z,14.77
2023-03-15T06:44:41.798Z,13.33
2023-03-15T06:47:11.359Z,13.70
2023-03-15T06:49:39.395Z,14.03
2023-03-15T06:52:11.084Z,13.40
2023-03-15T06:54:39.469Z,13.77
2023-03-15T07:10:33.046Z,11.23
2023-03-15T07:13:02.120Z,10.97
2023-03-15T07:15:30.649Z,10.97
2023-03-15T07:17:59.014Z,8.23
2023-03-15T07:20:27.497Z,11.23
2023-03-15T07:22:55.996Z,9.17
2023-03-15T07:25:26.089Z,11.50
2023-03-15T07:27:54.445Z,10.33
2023-03-15T07:30:23.350Z,8.73
2023-03-15T07:32:52.159Z,8.47
2023-03-15T07:35:20.525Z,12.23
2023-03-15T07:37:48.541Z,13.57
2023-03-15T07:40:19.120Z,15.00
2023-03-15T07:42:47.000Z,10.33
2023-03-15T07:45:14.633Z,11.80
2023-03-15T07:47:42.778Z,13.90
2023-03-15T07:50:13.211Z,12.13
2023-03-15T07:52:42.176Z,10.57
2023-03-15T07:55:11.038Z,9.20
2023-03-15T07:57:39.356Z,12.40
2023-03-15T08:00:09.185Z,9.57
2023-03-15T08:02:37.194Z,10.13
2023-03-15T08:05:06.003Z,11.27
2023-03-15T08:07:34.129Z,11.13
2023-03-15T08:10:02.708Z,12.20
2023-03-15T08:12:30.962Z,11.03
2023-03-15T08:14:59.044Z,14.43
2023-03-15T08:17:26.575Z,11.97
2023-03-15T08:19:54.489Z,13.70
2023-03-15T08:22:22.138Z,12.87
2023-03-15T08:24:50.709Z,16.80
2023-03-15T08:27:18.835Z,14.80
2023-03-15T08:29:46.680Z,13.23
2023-03-15T08:32:14.491Z,13.17
2023-03-15T08:34:42.340Z,11.03
2023-03-15T08:37:11.920Z,11.17
2023-03-15T08:39:40.838Z,12.00
2023-03-15T08:42:09.953Z,11.50
2023-03-15T08:44:38.098Z,10.50
2023-03-15T08:47:06.506Z,11.80
2023-03-15T08:49:35.133Z,12.30
2023-03-15T08:52:03.979Z,8.67
2023-03-15T08:54:31.618Z,9.43
2023-03-15T08:56:59.185Z,8.83
2023-03-15T08:59:31.674Z,7.70
2023-03-15T09:02:01.383Z,7.77
2023-03-15T09:04:29.030Z,7.70
2023-03-15T09:06:56.948Z,7.03
2023-03-15T09:09:25.274Z,6.37
2023-03-15T09:11:53.338Z,7.60
2023-03-15T09:14:21.022Z,7.57
2023-03-15T09:16:49.781Z,8.90
2023-03-15T09:19:18.096Z,6.80
2023-03-15T09:21:47.201Z,10.73
2023-03-15T09:24:14.931Z,8.00
2023-03-15T09:26:43.008Z,11.43
2023-03-15T09:29:11.342Z,9.10
2023-03-15T09:31:39.156Z,10.53
2023-03-15T09:34:07.006Z,8.33
2023-03-15T09:36:35.531Z,6.50
2023-03-15T09:39:03.767Z,5.80
2023-03-15T09:41:47.087Z,5.67
2023-03-15T09:44:20.588Z,3.93
2023-03-15T09:46:55.092Z,4.17
2023-03-15T09:49:40.049Z,4.37
2023-03-15T09:52:13.922Z,2.70
2023-03-15T09:55:00.247Z,1.87
2023-03-15T09:57:36.861Z,1.60
2023-03-15T10:00:06.627Z,1.50
2023-03-15T10:02:56.537Z,2.23
2023-03-15T10:05:26.760Z,2.70
2023-03-15T10:07:55.341Z,1.93
2023-03-15T10:10:34.272Z,3.50
2023-03-15T10:13:16.764Z,0.77
2023-03-15T10:16:03.748Z,1.80
2023-03-15T10:19:02.110Z,0.45
2023-03-15T10:21:51.380Z,0.40
2023-03-15T10:24:47.520Z,0.77
2023-03-15T10:27:53.460Z,0.90
2023-03-15T10:30:25.333Z,2.13
2023-03-15T10:32:57.308Z,2.17
2023-03-15T10:35:31.913Z,3.03
2023-03-15T10:38:00.039Z,2.37
2023-03-15T10:40:44.373Z,2.43
2023-03-15T10:43:18.304Z,4.37
2023-03-15T10:46:09.423Z,3.30
2023-03-15T10:48:38.624Z,9.37
2023-03-15T10:51:42.244Z,3.83
2023-03-15T10:54:46.448Z,11.47
2023-03-15T10:57:15.688Z,11.43
2023-03-15T11:00:21.333Z,9.13
2023-03-15T11:02:52.053Z,5.03
2023-03-15T11:05:20.010Z,3.47
2023-03-15T11:07:55.318Z,1.53
2023-03-15T11:10:30.183Z,2.37
2023-03-15T11:13:49.018Z,1.70
2023-03-15T11:16:16.120Z,0.43
2023-03-15T11:18:55.927Z,0.67
2023-03-15T11:21:26.190Z,0.97
2023-03-15T11:26:35.061Z,0.60
2023-03-15T11:29:06.762Z,0.93
2023-03-15T11:31:34.891Z,0.73
2023-03-15T11:34:36.359Z,3.40
2023-03-15T11:37:09.909Z,0.83
2023-03-15T11:47:48.810Z,1.40
2023-03-15T11:50:36.530Z,1.00
2023-03-15T11:56:26.248Z,0.77
2023-03-15T12:04:33.786Z,0.30
2023-03-15T12:07:03.554Z,1.63
2023-03-15T12:09:33.817Z,0.83
2023-03-15T12:12:03.115Z,0.97
2023-03-15T12:14:32.644Z,1.20
2023-03-15T12:17:24.440Z,2.23
2023-03-15T12:20:01.382Z,0.60
2023-03-15T12:25:18.242Z,0.70
2023-03-15T12:27:55.754Z,0.50
2023-03-15T12:33:00.212Z,0.33
2023-03-15T12:35:30.189Z,0.43
2023-03-15T12:38:01.797Z,0.70
2023-03-15T12:40:28.770Z,0.63
2023-03-15T12:42:57.486Z,3.90
2023-03-15T12:45:40.213Z,0.87
2023-03-15T12:48:08.785Z,2.00
2023-03-15T12:53:39.033Z,0.60
2023-03-15T12:56:17.860Z,0.22
2023-03-15T12:59:06.813Z,1.00
2023-03-15T13:01:33.767Z,0.73
2023-03-15T13:04:01.640Z,5.40
2023-03-15T13:06:37.099Z,0.52
2023-03-15T13:09:04.850Z,0.60
2023-03-15T13:11:33.308Z,0.98
2023-03-15T13:14:09.845Z,1.50
2023-03-15T13:19:33.085Z,0.85
2023-03-15T13:22:33.189Z,0.63
2023-03-15T13:28:13.321Z,0.32
2023-03-15T13:30:47.188Z,0.50
2023-03-15T13:33:21.069Z,0.50
2023-03-15T13:35:55.098Z,0.40
2023-03-15T13:38:36.404Z,2.58
2023-03-15T13:43:45.591Z,1.73
2023-03-15T13:46:14.473Z,3.67
2023-03-15T13:51:25.786Z,0.47
2023-03-15T13:54:20.167Z,0.60
2023-03-15T13:57:03.524Z,2.63
2023-03-15T13:59:57.332Z,1.98
2023-03-15T14:02:36.071Z,2.35
2023-03-15T14:05:09.413Z,2.80
2023-03-15T14:07:40.710Z,1.75
2023-03-15T14:10:32.831Z,1.55
2023-03-15T14:13:24.059Z,2.63
2023-03-15T14:16:07.699Z,1.23
2023-03-15T14:18:39.179Z,1.60
2023-03-15T14:21:17.873Z,1.10
2023-03-15T14:23:46.710Z,3.47
2023-03-15T14:26:21.634Z,1.38
2023-03-15T14:29:02.218Z,1.35
2023-03-15T14:31:32.283Z,3.03
2023-03-15T14:34:25.908Z,3.13
2023-03-15T14:36:54.397Z,1.40
2023-03-15T14:39:41.811Z,1.17
2023-03-15T14:42:13.216Z,2.50
2023-03-15T14:44:40.753Z,3.45
2023-03-15T14:47:13.034Z,4.07
2023-03-15T14:49:40.775Z,1.05
2023-03-15T14:52:09.312Z,3.47
2023-03-15T14:54:37.711Z,1.27
2023-03-15T14:57:05.832Z,1.80
2023-03-15T14:59:34.006Z,2.33
2023-03-15T15:04:40.815Z,7.77
2023-03-15T15:07:11.432Z,1.77
2023-03-15T15:15:03.000Z,4.30
2023-03-15T15:23:02.394Z,1.13
2023-03-15T15:25:34.082Z,3.13
2023-03-15T15:28:02.160Z,3.30
2023-03-15T15:30:31.322Z,2.77
2023-03-15T15:32:59.976Z,3.78
2023-03-15T15:35:29.745Z,6.63
2023-03-15T15:40:38.706Z,1.95
2023-03-15T15:43:07.323Z,2.33
2023-03-15T15:45:36.196Z,2.20
2023-03-15T15:48:06.642Z,2.83
2023-03-15T15:50:36.959Z,1.77
2023-03-15T15:58:29.974Z,4.93
2023-03-15T16:00:58.384Z,1.97
2023-03-15T16:03:27.064Z,2.93
2023-03-15T16:14:24.090Z,4.27
2023-03-15T16:30:49.974Z,5.97
2023-03-15T16:33:21.134Z,36.57
2023-03-15T16:35:53.631Z,9.63
2023-03-15T16:38:34.933Z,5.53
2023-03-15T16:41:03.985Z,19.80
2023-03-15T16:43:32.791Z,74.30
2023-03-15T16:46:01.256Z,66.33
2023-03-15T16:48:30.553Z,26.73
2023-03-15T16:50:59.225Z,11.73
2023-03-15T16:53:28.510Z,23.67
2023-03-15T16:55:59.965Z,39.60
2023-03-15T16:58:28.473Z,27.87
2023-03-15T17:00:56.409Z,59.97
2023-03-15T17:03:25.874Z,40.60
2023-03-15T17:05:54.384Z,48.60
2023-03-15T17:08:22.359Z,48.20
2023-03-15T17:10:50.456Z,22.23
2023-03-15T17:13:19.841Z,15.83
2023-03-15T17:15:49.073Z,9.63
2023-03-15T17:18:19.148Z,11.30
2023-03-15T17:20:48.982Z,95.90
2023-03-15T17:23:17.465Z,56.47
2023-03-15T17:25:45.880Z,66.73
2023-03-15T17:28:14.316Z,113.30
2023-03-15T17:30:46.334Z,51.33
2023-03-15T17:33:15.319Z,24.30
2023-03-15T17:35:44.649Z,23.37
2023-03-15T17:38:25.815Z,45.73
2023-03-15T17:40:54.526Z,17.63
2023-03-15T17:43:22.280Z,7.97
2023-03-15T17:45:50.119Z,4.93
2023-03-15T17:48:18.150Z,5.90
2023-03-15T17:50:45.692Z,11.17
2023-03-15T17:53:17.934Z,17.93
2023-03-15T17:55:54.280Z,16.10
2023-03-15T17:58:22.202Z,18.23
2023-03-15T18:00:50.683Z,14.57
2023-03-15T18:03:20.619Z,5.10
2023-03-15T18:05:49.145Z,5.60
2023-03-15T18:08:21.494Z,2.87
2023-03-15T18:11:00.866Z,3.90
2023-03-15T18:13:30.053Z,3.83
2023-03-15T18:15:58.400Z,10.23
2023-03-15T18:18:27.370Z,11.57
2023-03-15T18:20:55.295Z,7.70
2023-03-15T18:23:23.568Z,4.27
2023-03-15T18:25:52.705Z,4.57
2023-03-15T18:28:21.155Z,3.93
2023-03-15T18:30:50.156Z,4.37
2023-03-15T18:33:19.387Z,10.97
2023-03-15T18:35:48.452Z,5.13
2023-03-15T18:38:17.436Z,8.77
2023-03-15T18:40:46.292Z,7.27
2023-03-15T18:43:40.767Z,10.17
2023-03-15T18:46:10.158Z,9.90
2023-03-15T18:48:40.998Z,4.63
2023-03-15T18:51:12.424Z,5.63
2023-03-15T18:53:40.786Z,6.23
2023-03-15T18:56:20.590Z,6.70
2023-03-15T18:58:49.748Z,8.43
2023-03-15T19:01:19.341Z,7.33
2023-03-15T19:55:01.239Z,20.47
2023-03-15T19:57:30.266Z,13.70
2023-03-15T19:59:58.000Z,11.43
2023-03-15T20:02:26.676Z,10.33
2023-03-15T20:04:55.180Z,9.57
2023-03-15T20:07:24.196Z,9.83
2023-03-15T20:09:55.772Z,11.07
2023-03-15T20:12:24.161Z,9.20
2023-03-15T20:14:53.073Z,11.43
2023-03-15T20:17:21.479Z,10.80
2023-03-15T20:52:06.122Z,11.10
2023-03-15T20:54:34.446Z,8.93
2023-03-15T20:57:04.137Z,12.27
2023-03-15T20:59:33.157Z,10.67
2023-03-15T21:02:03.001Z,12.70
2023-03-15T21:04:31.874Z,12.10
2023-03-15T21:07:04.431Z,9.47
2023-03-15T21:09:33.125Z,9.47
2023-03-15T21:12:04.110Z,17.83
2023-03-15T21:14:33.840Z,9.40
2023-03-15T21:17:04.168Z,9.07
2023-03-15T21:19:32.415Z,8.23
2023-03-15T21:22:03.037Z,11.27
2023-03-15T21:24:40.631Z,7.67
2023-03-15T21:27:13.827Z,8.50
2023-03-15T21:29:44.248Z,13.37
2023-03-15T21:32:15.888Z,8.30
2023-03-15T21:34:46.454Z,7.23
2023-03-15T21:37:15.798Z,7.80
2023-03-15T22:05:40.856Z,5.97
2023-03-15T22:08:09.644Z,10.33
2023-03-15T22:24:09.827Z,7.93
2023-03-15T22:26:38.231Z,7.10
2023-03-15T22:29:06.005Z,7.50
2023-03-15T22:31:34.101Z,9.40
2023-03-15T22:34:04.833Z,7.37
2023-03-15T22:36:36.475Z,5.73
2023-03-15T22:39:04.959Z,8.20
2023-03-15T22:41:32.886Z,8.50
2023-03-15T22:44:01.676Z,7.00
2023-03-15T22:46:34.841Z,6.30
2023-03-15T22:49:03.005Z,7.27
2023-03-15T22:51:31.747Z,7.27
2023-03-15T22:54:00.230Z,5.80
2023-03-15T22:56:28.637Z,6.93
2023-03-15T22:58:57.048Z,7.20
2023-03-15T23:01:25.742Z,6.83
2023-03-15T23:03:54.217Z,6.97
2023-03-15T23:06:23.179Z,5.93
2023-03-15T23:08:54.875Z,9.50
2023-03-15T23:11:23.295Z,6.47
2023-03-15T23:13:52.119Z,7.20
2023-03-15T23:16:19.742Z,7.53
2023-03-15T23:18:48.924Z,7.33
2023-03-15T23:21:17.296Z,5.70
2023-03-15T23:23:45.808Z,6.13
2023-03-15T23:26:19.603Z,5.13
2023-03-15T23:28:54.802Z,4.80
2023-03-15T23:31:23.240Z,5.20
2023-03-15T23:33:52.468Z,4.10
2023-03-15T23:36:20.763Z,4.67
2023-03-15T23:38:49.076Z,3.30
2023-03-15T23:41:17.887Z,3.67
2023-03-15T23:43:46.414Z,3.30
2023-03-15T23:46:14.619Z,3.20
2023-03-15T23:48:42.541Z,2.20
2023-03-15T23:51:12.939Z,2.77
2023-03-15T23:53:42.428Z,2.27
2023-03-15T23:56:10.487Z,2.37
2023-03-15T23:58:39.276Z,2.23
